sensor_id;sensor_type;location;lat;lon;timestamp;P1;durP1;ratioP1;P2;durP2;ratioP2
17796;SDS011;55596;53.554;9.916;2024-02-14T00:00:52;6.07;;;2.37;;
17796;SDS011;55596;53.554;9.916;2024-02-14T00:03:19;5.80;;;2.50;;
17796;SDS011;55596;53.554;9.916;2024-02-14T00:05:48;3.70;;;2.17;;
17796;SDS011;55596;53.554;9.916;2024-02-14T00:08:17;5.50;;;2.67;;
17796;SDS011;55596;53.554;9.916;2024-02-14T00:10:45;5.63;;;2.50;;
17796;SDS011;55596;53.554;9.916;2024-02-14T00:13:13;3.53;;;1.73;;
17796;SDS011;55596;53.554;9.916;2024-02-14T00:15:43;5.47;;;2.20;;
17796;SDS011;55596;53.554;9.916;2024-02-14T00:18:10;5.17;;;2.27;;
17796;SDS011;55596;53.554;9.916;2024-02-14T00:20:37;5.23;;;2.00;;
17796;SDS011;55596;53.554;9.916;2024-02-14T00:23:05;4.50;;;2.17;;
17796;SDS011;55596;53.554;9.916;2024-02-14T00:25:32;3.90;;;2.27;;
17796;SDS011;55596;53.554;9.916;2024-02-14T00:28:00;5.27;;;2.50;;
17796;SDS011;55596;53.554;9.916;2024-02-14T00:30:28;5.40;;;2.23;;
17796;SDS011;55596;53.554;9.916;2024-02-14T00:32:55;8.73;;;2.20;;
17796;SDS011;55596;53.554;9.916;2024-02-14T00:35:22;5.40;;;2.80;;
17796;SDS011;55596;53.554;9.916;2024-02-14T00:37:49;5.43;;;2.13;;
17796;SDS011;55596;53.554;9.916;2024-02-14T00:40:17;6.20;;;2.20;;
17796;SDS011;55596;53.554;9.916;2024-02-14T00:42:44;8.17;;;2.60;;
17796;SDS011;55596;53.554;9.916;2024-02-14T00:45:12;7.83;;;2.53;;
17796;SDS011;55596;53.554;9.916;2024-02-14T00:47:40;9.00;;;2.30;;
17796;SDS011;55596;53.554;9.916;2024-02-14T00:50:07;6.87;;;2.53;;
17796;SDS011;55596;53.554;9.916;2024-02-14T00:52:34;5.87;;;2.53;;
17796;SDS011;55596;53.554;9.916;2024-02-14T00:55:01;8.30;;;2.37;;
17796;SDS011;55596;53.554;9.916;2024-02-14T00:57:28;7.43;;;2.40;;
17796;SDS011;55596;53.554;9.916;2024-02-14T00:59:55;8.37;;;3.10;;
17796;SDS011;55596;53.554;9.916;2024-02-14T01:02:24;6.23;;;2.33;;
17796;SDS011;55596;53.554;9.916;2024-02-14T01:04:52;4.73;;;2.23;;
17796;SDS011;55596;53.554;9.916;2024-02-14T01:07:19;5.57;;;2.30;;
17796;SDS011;55596;53.554;9.916;2024-02-14T01:09:46;9.33;;;2.70;;
17796;SDS011;55596;53.554;9.916;2024-02-14T01:12:13;9.43;;;2.70;;
17796;SDS011;55596;53.554;9.916;2024-02-14T01:14:40;4.40;;;2.20;;
17796;SDS011;55596;53.554;9.916;2024-02-14T01:17:07;4.47;;;2.47;;
17796;SDS011;55596;53.554;9.916;2024-02-14T01:19:35;7.63;;;2.70;;
17796;SDS011;55596;53.554;9.916;2024-02-14T01:22:02;8.07;;;2.60;;
17796;SDS011;55596;53.554;9.916;2024-02-14T01:24:29;6.47;;;3.43;;
17796;SDS011;55596;53.554;9.916;2024-02-14T01:26:57;4.57;;;2.50;;
17796;SDS011;55596;53.554;9.916;2024-02-14T01:29:24;5.53;;;2.10;;
17796;SDS011;55596;53.554;9.916;2024-02-14T01:31:51;6.47;;;3.10;;
17796;SDS011;55596;53.554;9.916;2024-02-14T01:34:18;6.63;;;3.00;;
17796;SDS011;55596;53.554;9.916;2024-02-14T01:36:47;6.60;;;3.07;;
17796;SDS011;55596;53.554;9.916;2024-02-14T01:39:14;6.23;;;3.17;;
17796;SDS011;55596;53.554;9.916;2024-02-14T01:41:44;6.97;;;3.40;;
17796;SDS011;55596;53.554;9.916;2024-02-14T01:44:13;8.63;;;3.30;;
17796;SDS011;55596;53.554;9.916;2024-02-14T01:46:40;6.40;;;3.47;;
17796;SDS011;55596;53.554;9.916;2024-02-14T01:49:07;5.27;;;3.17;;
17796;SDS011;55596;53.554;9.916;2024-02-14T01:51:34;5.67;;;3.40;;
17796;SDS011;55596;53.554;9.916;2024-02-14T01:54:03;6.03;;;3.60;;
17796;SDS011;55596;53.554;9.916;2024-02-14T01:56:31;6.20;;;3.33;;
17796;SDS011;55596;53.554;9.916;2024-02-14T01:58:58;9.13;;;4.03;;
17796;SDS011;55596;53.554;9.916;2024-02-14T02:01:25;7.37;;;4.13;;
17796;SDS011;55596;53.554;9.916;2024-02-14T02:03:53;7.63;;;4.07;;
17796;SDS011;55596;53.554;9.916;2024-02-14T02:06:20;4.53;;;3.80;;
17796;SDS011;55596;53.554;9.916;2024-02-14T02:08:47;10.97;;;4.07;;
17796;SDS011;55596;53.554;9.916;2024-02-14T02:11:15;8.90;;;4.20;;
17796;SDS011;55596;53.554;9.916;2024-02-14T02:13:43;10.00;;;4.20;;
17796;SDS011;55596;53.554;9.916;2024-02-14T02:16:10;8.57;;;4.57;;
17796;SDS011;55596;53.554;9.916;2024-02-14T02:18:37;5.57;;;3.73;;
17796;SDS011;55596;53.554;9.916;2024-02-14T02:21:04;6.23;;;3.90;;
17796;SDS011;55596;53.554;9.916;2024-02-14T02:23:33;5.07;;;4.10;;
17796;SDS011;55596;53.554;9.916;2024-02-14T02:26:00;8.53;;;4.53;;
17796;SDS011;55596;53.554;9.916;2024-02-14T02:28:27;8.00;;;4.30;;
17796;SDS011;55596;53.554;9.916;2024-02-14T02:30:54;5.20;;;4.13;;
17796;SDS011;55596;53.554;9.916;2024-02-14T02:33:21;9.43;;;3.93;;
17796;SDS011;55596;53.554;9.916;2024-02-14T02:35:48;9.27;;;4.93;;
17796;SDS011;55596;53.554;9.916;2024-02-14T02:38:15;14.97;;;4.50;;
17796;SDS011;55596;53.554;9.916;2024-02-14T02:40:44;9.23;;;4.47;;
17796;SDS011;55596;53.554;9.916;2024-02-14T02:43:11;7.53;;;4.47;;
17796;SDS011;55596;53.554;9.916;2024-02-14T02:45:38;6.17;;;4.60;;
17796;SDS011;55596;53.554;9.916;2024-02-14T02:48:05;8.23;;;3.97;;
17796;SDS011;55596;53.554;9.916;2024-02-14T02:50:32;5.83;;;4.40;;
17796;SDS011;55596;53.554;9.916;2024-02-14T02:52:59;7.63;;;4.47;;
17796;SDS011;55596;53.554;9.916;2024-02-14T02:55:26;8.63;;;4.43;;
17796;SDS011;55596;53.554;9.916;2024-02-14T02:57:55;5.47;;;4.37;;
17796;SDS011;55596;53.554;9.916;2024-02-14T03:00:22;11.77;;;5.10;;
17796;SDS011;55596;53.554;9.916;2024-02-14T03:02:49;8.67;;;5.00;;
17796;SDS011;55596;53.554;9.916;2024-02-14T03:05:16;11.43;;;5.67;;
17796;SDS011;55596;53.554;9.916;2024-02-14T03:07:43;7.53;;;4.73;;
17796;SDS011;55596;53.554;9.916;2024-02-14T03:10:12;10.53;;;5.23;;
17796;SDS011;55596;53.554;9.916;2024-02-14T03:12:42;11.40;;;4.90;;
17796;SDS011;55596;53.554;9.916;2024-02-14T03:15:11;9.60;;;5.43;;
17796;SDS011;55596;53.554;9.916;2024-02-14T03:17:39;10.00;;;5.20;;
17796;SDS011;55596;53.554;9.916;2024-02-14T03:20:07;7.57;;;4.80;;
17796;SDS011;55596;53.554;9.916;2024-02-14T03:22:37;6.53;;;5.30;;
17796;SDS011;55596;53.554;9.916;2024-02-14T03:25:11;15.47;;;5.90;;
17796;SDS011;55596;53.554;9.916;2024-02-14T03:27:39;15.30;;;5.67;;
17796;SDS011;55596;53.554;9.916;2024-02-14T03:30:06;19.97;;;6.00;;
17796;SDS011;55596;53.554;9.916;2024-02-14T03:32:35;12.30;;;6.13;;
17796;SDS011;55596;53.554;9.916;2024-02-14T03:35:02;20.50;;;6.47;;
17796;SDS011;55596;53.554;9.916;2024-02-14T03:37:29;10.40;;;6.10;;
17796;SDS011;55596;53.554;9.916;2024-02-14T03:39:56;12.07;;;6.40;;
17796;SDS011;55596;53.554;9.916;2024-02-14T03:42:23;11.23;;;6.10;;
17796;SDS011;55596;53.554;9.916;2024-02-14T03:44:51;10.90;;;5.43;;
17796;SDS011;55596;53.554;9.916;2024-02-14T03:47:23;9.37;;;6.27;;
17796;SDS011;55596;53.554;9.916;2024-02-14T03:49:52;11.43;;;6.40;;
17796;SDS011;55596;53.554;9.916;2024-02-14T03:52:19;13.67;;;6.37;;
17796;SDS011;55596;53.554;9.916;2024-02-14T03:54:47;10.77;;;5.87;;
17796;SDS011;55596;53.554;9.916;2024-02-14T03:57:15;14.83;;;5.73;;
17796;SDS011;55596;53.554;9.916;2024-02-14T03:59:42;8.70;;;5.50;;
17796;SDS011;55596;53.554;9.916;2024-02-14T04:02:09;10.20;;;6.27;;
17796;SDS011;55596;53.554;9.916;2024-02-14T04:04:37;10.43;;;5.90;;
17796;SDS011;55596;53.554;9.916;2024-02-14T04:07:06;8.80;;;5.80;;
17796;SDS011;55596;53.554;9.916;2024-02-14T04:09:33;10.10;;;5.93;;
17796;SDS011;55596;53.554;9.916;2024-02-14T04:12:00;8.90;;;5.40;;
17796;SDS011;55596;53.554;9.916;2024-02-14T04:14:27;13.03;;;6.03;;
17796;SDS011;55596;53.554;9.916;2024-02-14T04:16:54;10.20;;;5.87;;
17796;SDS011;55596;53.554;9.916;2024-02-14T04:19:21;7.87;;;5.70;;
17796;SDS011;55596;53.554;9.916;2024-02-14T04:21:48;12.33;;;6.13;;
17796;SDS011;55596;53.554;9.916;2024-02-14T04:24:17;9.57;;;6.03;;
17796;SDS011;55596;53.554;9.916;2024-02-14T04:26:44;10.77;;;5.83;;
17796;SDS011;55596;53.554;9.916;2024-02-14T04:29:13;17.70;;;6.47;;
17796;SDS011;55596;53.554;9.916;2024-02-14T04:31:40;11.27;;;6.30;;
17796;SDS011;55596;53.554;9.916;2024-02-14T04:34:07;9.20;;;6.57;;
17796;SDS011;55596;53.554;9.916;2024-02-14T04:36:35;13.23;;;6.87;;
17796;SDS011;55596;53.554;9.916;2024-02-14T04:39:02;9.90;;;7.10;;
17796;SDS011;55596;53.554;9.916;2024-02-14T04:41:30;13.53;;;6.43;;
17796;SDS011;55596;53.554;9.916;2024-02-14T04:44:02;11.93;;;6.97;;
17796;SDS011;55596;53.554;9.916;2024-02-14T04:46:31;13.80;;;7.23;;
17796;SDS011;55596;53.554;9.916;2024-02-14T04:48:59;8.57;;;6.90;;
17796;SDS011;55596;53.554;9.916;2024-02-14T04:51:28;12.07;;;7.30;;
17796;SDS011;55596;53.554;9.916;2024-02-14T04:53:55;10.07;;;7.33;;
17796;SDS011;55596;53.554;9.916;2024-02-14T04:56:23;8.47;;;7.13;;
17796;SDS011;55596;53.554;9.916;2024-02-14T04:58:52;17.53;;;7.90;;
17796;SDS011;55596;53.554;9.916;2024-02-14T05:01:20;12.37;;;7.70;;
17796;SDS011;55596;53.554;9.916;2024-02-14T05:03:47;13.43;;;7.77;;
17796;SDS011;55596;53.554;9.916;2024-02-14T05:06:14;15.43;;;8.73;;
17796;SDS011;55596;53.554;9.916;2024-02-14T05:08:41;10.30;;;8.00;;
17796;SDS011;55596;53.554;9.916;2024-02-14T05:11:08;12.60;;;7.93;;
17796;SDS011;55596;53.554;9.916;2024-02-14T05:13:35;11.77;;;8.13;;
17796;SDS011;55596;53.554;9.916;2024-02-14T05:16:04;14.50;;;8.47;;
17796;SDS011;55596;53.554;9.916;2024-02-14T05:18:35;12.97;;;8.30;;
17796;SDS011;55596;53.554;9.916;2024-02-14T05:21:04;11.80;;;7.63;;
17796;SDS011;55596;53.554;9.916;2024-02-14T05:23:31;11.43;;;9.13;;
17796;SDS011;55596;53.554;9.916;2024-02-14T05:25:58;14.30;;;8.70;;
17796;SDS011;55596;53.554;9.916;2024-02-14T05:28:26;9.87;;;8.00;;
17796;SDS011;55596;53.554;9.916;2024-02-14T05:30:53;13.00;;;8.33;;
17796;SDS011;55596;53.554;9.916;2024-02-14T05:33:21;19.97;;;9.67;;
17796;SDS011;55596;53.554;9.916;2024-02-14T05:35:48;12.87;;;9.37;;
17796;SDS011;55596;53.554;9.916;2024-02-14T05:38:15;10.63;;;8.63;;
17796;SDS011;55596;53.554;9.916;2024-02-14T05:40:44;14.07;;;9.10;;
17796;SDS011;55596;53.554;9.916;2024-02-14T05:43:11;9.93;;;8.67;;
17796;SDS011;55596;53.554;9.916;2024-02-14T05:45:38;15.17;;;9.03;;
17796;SDS011;55596;53.554;9.916;2024-02-14T05:48:06;15.20;;;8.77;;
17796;SDS011;55596;53.554;9.916;2024-02-14T05:50:34;11.77;;;8.83;;
17796;SDS011;55596;53.554;9.916;2024-02-14T05:53:01;11.03;;;8.27;;
17796;SDS011;55596;53.554;9.916;2024-02-14T05:55:28;13.30;;;8.53;;
17796;SDS011;55596;53.554;9.916;2024-02-14T05:57:55;10.80;;;9.07;;
17796;SDS011;55596;53.554;9.916;2024-02-14T06:00:23;11.10;;;8.60;;
17796;SDS011;55596;53.554;9.916;2024-02-14T06:02:50;11.20;;;8.70;;
17796;SDS011;55596;53.554;9.916;2024-02-14T06:05:17;12.33;;;8.57;;
17796;SDS011;55596;53.554;9.916;2024-02-14T06:07:46;12.20;;;8.50;;
17796;SDS011;55596;53.554;9.916;2024-02-14T06:10:13;13.63;;;8.43;;
17796;SDS011;55596;53.554;9.916;2024-02-14T06:12:40;13.47;;;9.50;;
17796;SDS011;55596;53.554;9.916;2024-02-14T06:15:09;12.93;;;9.60;;
17796;SDS011;55596;53.554;9.916;2024-02-14T06:17:36;12.10;;;8.87;;
17796;SDS011;55596;53.554;9.916;2024-02-14T06:20:04;11.87;;;9.90;;
17796;SDS011;55596;53.554;9.916;2024-02-14T06:22:32;11.47;;;9.40;;
17796;SDS011;55596;53.554;9.916;2024-02-14T06:25:00;13.57;;;9.70;;
17796;SDS011;55596;53.554;9.916;2024-02-14T06:27:29;12.73;;;9.63;;
17796;SDS011;55596;53.554;9.916;2024-02-14T06:29:57;12.87;;;9.40;;
17796;SDS011;55596;53.554;9.916;2024-02-14T06:32:24;10.73;;;8.97;;
17796;SDS011;55596;53.554;9.916;2024-02-14T06:34:51;12.73;;;8.87;;
17796;SDS011;55596;53.554;9.916;2024-02-14T06:37:18;12.33;;;9.00;;
17796;SDS011;55596;53.554;9.916;2024-02-14T06:39:45;12.00;;;9.50;;
17796;SDS011;55596;53.554;9.916;2024-02-14T06:42:14;12.47;;;8.77;;
17796;SDS011;55596;53.554;9.916;2024-02-14T06:44:42;11.37;;;9.30;;
17796;SDS011;55596;53.554;9.916;2024-02-14T06:47:09;11.57;;;8.87;;
17796;SDS011;55596;53.554;9.916;2024-02-14T06:49:36;10.77;;;9.20;;
17796;SDS011;55596;53.554;9.916;2024-02-14T06:52:03;11.77;;;8.77;;
17796;SDS011;55596;53.554;9.916;2024-02-14T06:54:30;13.37;;;9.60;;
17796;SDS011;55596;53.554;9.916;2024-02-14T06:56:57;12.83;;;9.73;;
17796;SDS011;55596;53.554;9.916;2024-02-14T06:59:26;13.73;;;9.33;;
17796;SDS011;55596;53.554;9.916;2024-02-14T07:01:53;14.70;;;9.90;;
17796;SDS011;55596;53.554;9.916;2024-02-14T07:04:20;11.97;;;9.33;;
17796;SDS011;55596;53.554;9.916;2024-02-14T07:06:50;15.80;;;10.30;;
17796;SDS011;55596;53.554;9.916;2024-02-14T07:09:17;15.07;;;10.37;;
17796;SDS011;55596;53.554;9.916;2024-02-14T07:11:44;14.30;;;9.83;;
17796;SDS011;55596;53.554;9.916;2024-02-14T07:14:11;12.93;;;10.00;;
17796;SDS011;55596;53.554;9.916;2024-02-14T07:16:40;15.00;;;10.70;;
17796;SDS011;55596;53.554;9.916;2024-02-14T07:19:07;12.40;;;9.93;;
17796;SDS011;55596;53.554;9.916;2024-02-14T07:21:34;16.23;;;11.00;;
17796;SDS011;55596;53.554;9.916;2024-02-14T07:24:02;13.47;;;10.83;;
17796;SDS011;55596;53.554;9.916;2024-02-14T07:26:30;13.30;;;10.03;;
17796;SDS011;55596;53.554;9.916;2024-02-14T07:28:57;13.30;;;10.50;;
17796;SDS011;55596;53.554;9.916;2024-02-14T07:31:24;11.87;;;10.33;;
17796;SDS011;55596;53.554;9.916;2024-02-14T07:33:52;12.57;;;10.50;;
17796;SDS011;55596;53.554;9.916;2024-02-14T07:36:19;14.70;;;10.07;;
17796;SDS011;55596;53.554;9.916;2024-02-14T07:38:46;13.87;;;10.67;;
17796;SDS011;55596;53.554;9.916;2024-02-14T07:41:13;12.43;;;10.13;;
17796;SDS011;55596;53.554;9.916;2024-02-14T07:43:40;17.10;;;10.50;;
17796;SDS011;55596;53.554;9.916;2024-02-14T07:46:07;11.77;;;10.17;;
17796;SDS011;55596;53.554;9.916;2024-02-14T07:48:36;14.93;;;10.10;;
17796;SDS011;55596;53.554;9.916;2024-02-14T07:51:07;15.43;;;10.87;;
17796;SDS011;55596;53.554;9.916;2024-02-14T07:53:35;18.33;;;10.73;;
17796;SDS011;55596;53.554;9.916;2024-02-14T07:56:02;13.83;;;10.80;;
17796;SDS011;55596;53.554;9.916;2024-02-14T07:58:29;16.47;;;10.10;;
17796;SDS011;55596;53.554;9.916;2024-02-14T08:00:56;15.50;;;10.87;;
17796;SDS011;55596;53.554;9.916;2024-02-14T08:03:23;14.80;;;11.00;;
17796;SDS011;55596;53.554;9.916;2024-02-14T08:05:50;11.60;;;9.77;;
17796;SDS011;55596;53.554;9.916;2024-02-14T08:08:19;13.07;;;10.17;;
17796;SDS011;55596;53.554;9.916;2024-02-14T08:10:46;15.40;;;11.50;;
17796;SDS011;55596;53.554;9.916;2024-02-14T08:13:13;15.40;;;10.93;;
17796;SDS011;55596;53.554;9.916;2024-02-14T08:15:42;13.93;;;11.53;;
17796;SDS011;55596;53.554;9.916;2024-02-14T08:18:09;17.53;;;11.60;;
17796;SDS011;55596;53.554;9.916;2024-02-14T08:20:37;18.10;;;10.27;;
17796;SDS011;55596;53.554;9.916;2024-02-14T08:23:04;17.57;;;11.90;;
17796;SDS011;55596;53.554;9.916;2024-02-14T08:25:32;15.00;;;10.63;;
17796;SDS011;55596;53.554;9.916;2024-02-14T08:27:59;17.63;;;11.33;;
17796;SDS011;55596;53.554;9.916;2024-02-14T08:30:26;14.77;;;10.50;;
17796;SDS011;55596;53.554;9.916;2024-02-14T08:32:53;15.13;;;10.80;;
17796;SDS011;55596;53.554;9.916;2024-02-14T08:35:20;13.40;;;10.50;;
17796;SDS011;55596;53.554;9.916;2024-02-14T08:37:47;13.80;;;10.53;;
17796;SDS011;55596;53.554;9.916;2024-02-14T08:40:14;12.07;;;10.30;;
17796;SDS011;55596;53.554;9.916;2024-02-14T08:42:43;13.17;;;9.40;;
17796;SDS011;55596;53.554;9.916;2024-02-14T08:45:10;11.17;;;9.77;;
17796;SDS011;55596;53.554;9.916;2024-02-14T08:47:37;14.57;;;9.27;;
17796;SDS011;55596;53.554;9.916;2024-02-14T08:50:04;11.67;;;9.53;;
17796;SDS011;55596;53.554;9.916;2024-02-14T08:52:31;14.73;;;10.07;;
17796;SDS011;55596;53.554;9.916;2024-02-14T08:54:58;15.10;;;9.50;;
17796;SDS011;55596;53.554;9.916;2024-02-14T08:57:25;13.07;;;10.10;;
17796;SDS011;55596;53.554;9.916;2024-02-14T08:59:54;10.33;;;8.93;;
17796;SDS011;55596;53.554;9.916;2024-02-14T09:02:21;14.63;;;9.13;;
17796;SDS011;55596;53.554;9.916;2024-02-14T09:04:50;9.63;;;7.47;;
17796;SDS011;55596;53.554;9.916;2024-02-14T09:07:17;7.93;;;6.97;;
17796;SDS011;55596;53.554;9.916;2024-02-14T09:09:44;12.73;;;8.03;;
17796;SDS011;55596;53.554;9.916;2024-02-14T09:12:11;8.70;;;7.00;;
17796;SDS011;55596;53.554;9.916;2024-02-14T09:14:38;6.63;;;6.03;;
17796;SDS011;55596;53.554;9.916;2024-02-14T09:17:07;7.63;;;6.13;;
17796;SDS011;55596;53.554;9.916;2024-02-14T09:19:34;6.90;;;5.80;;
17796;SDS011;55596;53.554;9.916;2024-02-14T09:22:02;7.90;;;6.00;;
17796;SDS011;55596;53.554;9.916;2024-02-14T09:24:31;6.63;;;5.93;;
17796;SDS011;55596;53.554;9.916;2024-02-14T09:26:58;6.83;;;6.10;;
17796;SDS011;55596;53.554;9.916;2024-02-14T09:29:27;6.57;;;5.80;;
17796;SDS011;55596;53.554;9.916;2024-02-14T09:31:54;6.43;;;5.83;;
17796;SDS011;55596;53.554;9.916;2024-02-14T09:34:22;7.03;;;5.97;;
17796;SDS011;55596;53.554;9.916;2024-02-14T09:36:50;7.50;;;6.67;;
17796;SDS011;55596;53.554;9.916;2024-02-14T09:39:18;7.67;;;6.27;;
17796;SDS011;55596;53.554;9.916;2024-02-14T09:41:46;7.53;;;6.70;;
17796;SDS011;55596;53.554;9.916;2024-02-14T09:44:19;7.43;;;6.70;;
17796;SDS011;55596;53.554;9.916;2024-02-14T09:46:47;7.77;;;6.97;;
17796;SDS011;55596;53.554;9.916;2024-02-14T09:49:14;8.13;;;7.00;;
17796;SDS011;55596;53.554;9.916;2024-02-14T09:51:44;8.77;;;7.33;;
17796;SDS011;55596;53.554;9.916;2024-02-14T09:54:13;7.57;;;6.77;;
17796;SDS011;55596;53.554;9.916;2024-02-14T09:56:41;7.23;;;6.27;;
17796;SDS011;55596;53.554;9.916;2024-02-14T09:59:07;8.10;;;7.20;;
17796;SDS011;55596;53.554;9.916;2024-02-14T10:01:35;8.47;;;7.23;;
17796;SDS011;55596;53.554;9.916;2024-02-14T10:04:02;9.40;;;7.17;;
17796;SDS011;55596;53.554;9.916;2024-02-14T10:06:30;7.83;;;7.03;;
17796;SDS011;55596;53.554;9.916;2024-02-14T10:09:00;8.67;;;7.77;;
17796;SDS011;55596;53.554;9.916;2024-02-14T10:11:27;11.80;;;8.00;;
17796;SDS011;55596;53.554;9.916;2024-02-14T10:13:54;10.30;;;8.13;;
17796;SDS011;55596;53.554;9.916;2024-02-14T10:16:25;10.47;;;7.67;;
17796;SDS011;55596;53.554;9.916;2024-02-14T10:18:52;8.23;;;7.30;;
17796;SDS011;55596;53.554;9.916;2024-02-14T10:21:20;6.90;;;6.20;;
17796;SDS011;55596;53.554;9.916;2024-02-14T10:23:47;7.27;;;6.57;;
17796;SDS011;55596;53.554;9.916;2024-02-14T10:26:17;10.23;;;7.27;;
17796;SDS011;55596;53.554;9.916;2024-02-14T10:28:44;8.57;;;6.80;;
17796;SDS011;55596;53.554;9.916;2024-02-14T10:31:11;7.43;;;6.73;;
17796;SDS011;55596;53.554;9.916;2024-02-14T10:33:39;7.73;;;6.53;;
17796;SDS011;55596;53.554;9.916;2024-02-14T10:36:06;7.17;;;6.47;;
17796;SDS011;55596;53.554;9.916;2024-02-14T10:38:34;6.80;;;6.20;;
17796;SDS011;55596;53.554;9.916;2024-02-14T10:41:01;7.20;;;6.50;;
17796;SDS011;55596;53.554;9.916;2024-02-14T10:43:30;6.60;;;5.90;;
17796;SDS011;55596;53.554;9.916;2024-02-14T10:45:58;6.83;;;5.90;;
17796;SDS011;55596;53.554;9.916;2024-02-14T10:48:26;7.00;;;6.30;;
17796;SDS011;55596;53.554;9.916;2024-02-14T10:50:58;7.07;;;6.33;;
17796;SDS011;55596;53.554;9.916;2024-02-14T10:53:26;6.93;;;5.83;;
17796;SDS011;55596;53.554;9.916;2024-02-14T10:55:59;6.97;;;6.27;;
17796;SDS011;55596;53.554;9.916;2024-02-14T10:58:27;8.93;;;6.83;;
17796;SDS011;55596;53.554;9.916;2024-02-14T11:00:57;7.10;;;6.40;;
17796;SDS011;55596;53.554;9.916;2024-02-14T11:03:24;6.87;;;6.17;;
17796;SDS011;55596;53.554;9.916;2024-02-14T11:05:53;6.83;;;6.23;;
17796;SDS011;55596;53.554;9.916;2024-02-14T11:08:25;8.00;;;6.80;;
17796;SDS011;55596;53.554;9.916;2024-02-14T11:10:58;8.23;;;7.43;;
17796;SDS011;55596;53.554;9.916;2024-02-14T11:13:25;8.47;;;7.57;;
17796;SDS011;55596;53.554;9.916;2024-02-14T11:15:53;8.53;;;7.63;;
17796;SDS011;55596;53.554;9.916;2024-02-14T11:18:26;10.73;;;8.03;;
17796;SDS011;55596;53.554;9.916;2024-02-14T11:20:55;9.00;;;7.87;;
17796;SDS011;55596;53.554;9.916;2024-02-14T11:23:22;10.53;;;8.40;;
17796;SDS011;55596;53.554;9.916;2024-02-14T11:25:58;9.97;;;8.63;;
17796;SDS011;55596;53.554;9.916;2024-02-14T11:28:25;8.87;;;7.97;;
17796;SDS011;55596;53.554;9.916;2024-02-14T11:30:53;9.70;;;8.70;;
17796;SDS011;55596;53.554;9.916;2024-02-14T11:33:27;11.93;;;9.10;;
17796;SDS011;55596;53.554;9.916;2024-02-14T11:35:55;12.97;;;9.67;;
17796;SDS011;55596;53.554;9.916;2024-02-14T11:38:24;12.00;;;9.43;;
17796;SDS011;55596;53.554;9.916;2024-02-14T11:40:53;10.30;;;8.80;;
17796;SDS011;55596;53.554;9.916;2024-02-14T11:43:21;11.67;;;9.43;;
17796;SDS011;55596;53.554;9.916;2024-02-14T11:45:49;12.43;;;9.73;;
17796;SDS011;55596;53.554;9.916;2024-02-14T11:48:17;11.47;;;9.37;;
17796;SDS011;55596;53.554;9.916;2024-02-14T11:50:46;12.37;;;9.73;;
17796;SDS011;55596;53.554;9.916;2024-02-14T11:53:14;10.23;;;9.10;;
17796;SDS011;55596;53.554;9.916;2024-02-14T11:55:43;12.63;;;9.23;;
17796;SDS011;55596;53.554;9.916;2024-02-14T11:58:12;11.30;;;9.53;;
17796;SDS011;55596;53.554;9.916;2024-02-14T12:00:39;11.97;;;8.80;;
17796;SDS011;55596;53.554;9.916;2024-02-14T12:03:07;13.70;;;9.37;;
17796;SDS011;55596;53.554;9.916;2024-02-14T12:05:34;13.03;;;9.37;;
17796;SDS011;55596;53.554;9.916;2024-02-14T12:08:03;12.87;;;9.17;;
17796;SDS011;55596;53.554;9.916;2024-02-14T12:10:31;11.27;;;9.20;;
17796;SDS011;55596;53.554;9.916;2024-02-14T12:12:58;11.83;;;9.67;;
17796;SDS011;55596;53.554;9.916;2024-02-14T12:15:36;12.50;;;10.23;;
17796;SDS011;55596;53.554;9.916;2024-02-14T12:18:04;13.97;;;10.37;;
17796;SDS011;55596;53.554;9.916;2024-02-14T12:20:31;12.97;;;10.50;;
17796;SDS011;55596;53.554;9.916;2024-02-14T12:22:59;16.13;;;11.03;;
17796;SDS011;55596;53.554;9.916;2024-02-14T12:25:30;13.43;;;10.07;;
17796;SDS011;55596;53.554;9.916;2024-02-14T12:27:57;15.23;;;10.90;;
17796;SDS011;55596;53.554;9.916;2024-02-14T12:30:28;15.50;;;10.83;;
17796;SDS011;55596;53.554;9.916;2024-02-14T12:33:01;16.70;;;11.20;;
17796;SDS011;55596;53.554;9.916;2024-02-14T12:35:34;17.43;;;11.70;;
17796;SDS011;55596;53.554;9.916;2024-02-14T12:38:05;19.83;;;12.40;;
17796;SDS011;55596;53.554;9.916;2024-02-14T12:40:36;19.50;;;12.97;;
17796;SDS011;55596;53.554;9.916;2024-02-14T12:43:03;20.43;;;13.37;;
17796;SDS011;55596;53.554;9.916;2024-02-14T12:45:31;18.07;;;13.50;;
17796;SDS011;55596;53.554;9.916;2024-02-14T12:47:59;21.53;;;14.00;;
17796;SDS011;55596;53.554;9.916;2024-02-14T12:50:26;21.20;;;14.27;;
17796;SDS011;55596;53.554;9.916;2024-02-14T12:52:53;22.97;;;15.77;;
17796;SDS011;55596;53.554;9.916;2024-02-14T12:55:20;27.63;;;16.67;;
17796;SDS011;55596;53.554;9.916;2024-02-14T12:57:51;23.17;;;15.70;;
17796;SDS011;55596;53.554;9.916;2024-02-14T13:00:19;24.70;;;16.30;;
17796;SDS011;55596;53.554;9.916;2024-02-14T13:02:46;27.43;;;17.93;;
17796;SDS011;55596;53.554;9.916;2024-02-14T13:05:14;29.23;;;17.57;;
17796;SDS011;55596;53.554;9.916;2024-02-14T13:07:44;31.73;;;17.47;;
17796;SDS011;55596;53.554;9.916;2024-02-14T13:10:12;29.80;;;17.37;;
17796;SDS011;55596;53.554;9.916;2024-02-14T13:12:39;29.67;;;17.33;;
17796;SDS011;55596;53.554;9.916;2024-02-14T13:15:10;24.70;;;16.17;;
17796;SDS011;55596;53.554;9.916;2024-02-14T13:17:37;23.97;;;15.17;;
17796;SDS011;55596;53.554;9.916;2024-02-14T13:20:04;25.10;;;15.30;;
17796;SDS011;55596;53.554;9.916;2024-02-14T13:22:32;22.60;;;13.57;;
17796;SDS011;55596;53.554;9.916;2024-02-14T13:24:59;21.33;;;13.23;;
17796;SDS011;55596;53.554;9.916;2024-02-14T13:27:28;19.73;;;13.20;;
17796;SDS011;55596;53.554;9.916;2024-02-14T13:29:55;21.27;;;13.40;;
17796;SDS011;55596;53.554;9.916;2024-02-14T13:32:26;19.10;;;13.37;;
17796;SDS011;55596;53.554;9.916;2024-02-14T13:34:53;28.83;;;13.93;;
17796;SDS011;55596;53.554;9.916;2024-02-14T13:37:21;19.57;;;13.07;;
17796;SDS011;55596;53.554;9.916;2024-02-14T13:39:48;21.63;;;13.20;;
17796;SDS011;55596;53.554;9.916;2024-02-14T13:42:16;19.53;;;13.13;;
17796;SDS011;55596;53.554;9.916;2024-02-14T13:44:43;20.43;;;13.30;;
17796;SDS011;55596;53.554;9.916;2024-02-14T13:47:10;23.20;;;14.00;;
17796;SDS011;55596;53.554;9.916;2024-02-14T13:49:38;18.50;;;13.87;;
17796;SDS011;55596;53.554;9.916;2024-02-14T13:52:05;20.37;;;13.30;;
17796;SDS011;55596;53.554;9.916;2024-02-14T13:54:32;20.43;;;13.73;;
17796;SDS011;55596;53.554;9.916;2024-02-14T13:57:00;18.63;;;13.20;;
17796;SDS011;55596;53.554;9.916;2024-02-14T13:59:27;21.73;;;14.27;;
17796;SDS011;55596;53.554;9.916;2024-02-14T14:01:54;19.70;;;14.00;;
17796;SDS011;55596;53.554;9.916;2024-02-14T14:04:22;20.60;;;13.60;;
17796;SDS011;55596;53.554;9.916;2024-02-14T14:06:52;22.37;;;14.80;;
17796;SDS011;55596;53.554;9.916;2024-02-14T14:09:20;19.60;;;14.03;;
17796;SDS011;55596;53.554;9.916;2024-02-14T14:11:47;20.70;;;14.00;;
17796;SDS011;55596;53.554;9.916;2024-02-14T14:14:16;19.50;;;13.77;;
17796;SDS011;55596;53.554;9.916;2024-02-14T14:16:44;22.70;;;14.37;;
17796;SDS011;55596;53.554;9.916;2024-02-14T14:19:11;18.60;;;13.40;;
17796;SDS011;55596;53.554;9.916;2024-02-14T14:21:38;18.67;;;13.67;;
17796;SDS011;55596;53.554;9.916;2024-02-14T14:24:07;20.07;;;13.00;;
17796;SDS011;55596;53.554;9.916;2024-02-14T14:26:34;22.47;;;13.97;;
17796;SDS011;55596;53.554;9.916;2024-02-14T14:29:01;22.33;;;14.33;;
17796;SDS011;55596;53.554;9.916;2024-02-14T14:31:28;23.67;;;14.83;;
17796;SDS011;55596;53.554;9.916;2024-02-14T14:33:55;20.13;;;13.80;;
17796;SDS011;55596;53.554;9.916;2024-02-14T14:36:22;21.30;;;14.63;;
17796;SDS011;55596;53.554;9.916;2024-02-14T14:38:50;26.60;;;15.60;;